createdAt,value
2022-09-15T00:03:24.729Z,11.41
2022-09-15T00:08:26.391Z,11.48
2022-09-15T00:13:27.875Z,11.79
2022-09-15T00:18:30.270Z,12.01
2022-09-15T00:23:31.877Z,12.12
2022-09-15T00:28:34.309Z,12.38
2022-09-15T00:33:36.156Z,12.40
2022-09-15T00:38:38.513Z,12.59
2022-09-15T00:44:01.579Z,12.66
2022-09-15T00:49:37.378Z,12.77
2022-09-15T00:54:55.021Z,12.92
2022-09-15T01:05:18.099Z,13.11
2022-09-15T01:10:26.275Z,13.18
2022-09-15T01:15:49.073Z,13.25
2022-09-15T01:21:10.051Z,13.27
2022-09-15T01:26:43.445Z,13.26
2022-09-15T01:32:15.911Z,13.37
2022-09-15T01:37:25.101Z,13.38
2022-09-15T01:42:28.530Z,13.40
2022-09-15T01:47:30.725Z,13.41
2022-09-15T01:52:33.505Z,13.40
2022-09-15T01:57:35.033Z,13.39
2022-09-15T02:02:44.155Z,13.37
2022-09-15T02:07:57.002Z,13.33
2022-09-15T02:13:17.912Z,13.23
2022-09-15T02:18:25.518Z,13.10
2022-09-15T02:23:39.644Z,12.99
2022-09-15T02:28:43.730Z,12.93
2022-09-15T02:33:51.180Z,12.83
2022-09-15T02:38:58.324Z,12.77
2022-09-15T02:43:59.880Z,12.76
2022-09-15T02:49:01.387Z,12.69
2022-09-15T02:54:02.949Z,12.72
2022-09-15T02:59:04.664Z,12.61
2022-09-15T03:04:06.529Z,12.52
2022-09-15T03:09:08.422Z,12.54
2022-09-15T03:14:10.177Z,12.58
2022-09-15T03:19:12.318Z,12.59
2022-09-15T03:24:15.366Z,12.63
2022-09-15T03:29:16.939Z,12.70
2022-09-15T03:34:18.490Z,12.75
2022-09-15T03:39:19.996Z,12.73
2022-09-15T03:44:21.586Z,12.66
2022-09-15T03:49:23.263Z,12.67
2022-09-15T03:54:26.048Z,12.73
2022-09-15T03:59:27.555Z,12.65
2022-09-15T04:04:29.162Z,12.65
2022-09-15T04:09:32.408Z,12.61
2022-09-15T04:14:34.238Z,12.58
2022-09-15T04:19:35.731Z,12.58
2022-09-15T04:24:37.211Z,12.57
2022-09-15T04:29:38.688Z,12.50
2022-09-15T04:34:41.547Z,12.48
2022-09-15T04:39:43.155Z,12.46
2022-09-15T04:44:44.653Z,12.51
2022-09-15T04:49:46.819Z,12.54
2022-09-15T04:54:48.399Z,12.54
2022-09-15T04:59:49.922Z,12.58
2022-09-15T05:04:52.496Z,12.54
2022-09-15T05:09:54.027Z,12.50
2022-09-15T05:14:55.466Z,12.45
2022-09-15T05:19:57.164Z,12.50
2022-09-15T05:24:58.674Z,12.59
2022-09-15T05:30:31.819Z,12.55
2022-09-15T05:35:23.583Z,12.63
2022-09-15T05:40:25.095Z,12.68
2022-09-15T05:45:26.731Z,12.83
2022-09-15T05:50:28.211Z,12.88
2022-09-15T05:55:29.726Z,12.91
2022-09-15T06:00:31.256Z,12.96
2022-09-15T06:05:32.729Z,12.99
2022-09-15T06:10:34.350Z,13.02
2022-09-15T06:15:35.883Z,13.07
2022-09-15T06:20:37.457Z,13.17
2022-09-15T06:25:39.924Z,13.22
2022-09-15T06:30:41.493Z,13.32
2022-09-15T06:35:43.667Z,13.37
2022-09-15T06:40:54.516Z,13.42
2022-09-15T06:46:11.789Z,13.52
2022-09-15T06:51:14.081Z,13.73
2022-09-15T06:56:18.390Z,13.74
2022-09-15T07:01:25.333Z,13.94
2022-09-15T07:06:31.698Z,14.09
2022-09-15T07:11:33.825Z,14.13
2022-09-15T07:16:35.423Z,14.19
2022-09-15T07:21:52.843Z,14.23
2022-09-15T07:26:54.353Z,14.39
2022-09-15T07:31:55.993Z,14.45
2022-09-15T07:36:57.607Z,14.54
2022-09-15T07:41:59.165Z,14.67
2022-09-15T07:47:00.635Z,14.90
2022-09-15T07:52:02.660Z,15.17
2022-09-15T07:57:06.391Z,15.34
2022-09-15T08:02:14.168Z,15.53
2022-09-15T08:07:15.789Z,15.19
2022-09-15T08:12:17.304Z,14.97
2022-09-15T08:17:18.814Z,14.54
2022-09-15T08:22:20.351Z,13.47
2022-09-15T08:27:22.568Z,13.05
2022-09-15T08:32:24.145Z,13.00
2022-09-15T08:37:25.602Z,13.26
2022-09-15T08:42:29.139Z,13.51
2022-09-15T08:47:40.767Z,14.01
2022-09-15T08:53:17.040Z,14.18
2022-09-15T08:58:38.774Z,14.41
2022-09-15T09:04:12.320Z,14.52
2022-09-15T09:09:38.617Z,14.76
2022-09-15T09:14:54.923Z,15.06
2022-09-15T09:20:15.739Z,15.26
2022-09-15T09:25:27.946Z,15.31
2022-09-15T09:30:33.112Z,15.51
2022-09-15T09:35:42.955Z,15.52
2022-09-15T09:40:44.651Z,16.19
2022-09-15T09:45:46.222Z,16.14
2022-09-15T09:50:47.964Z,16.03
2022-09-15T09:55:49.583Z,16.69
2022-09-15T10:00:54.279Z,16.92
2022-09-15T10:06:06.406Z,16.83
2022-09-15T10:11:10.352Z,17.05
2022-09-15T10:16:12.069Z,16.81
2022-09-15T10:21:14.685Z,16.86
2022-09-15T10:26:16.261Z,17.12
2022-09-15T10:31:30.515Z,16.81
2022-09-15T10:36:32.443Z,17.11
2022-09-15T10:41:45.236Z,16.72
2022-09-15T10:46:59.087Z,18.14
2022-09-15T10:52:25.121Z,17.91
2022-09-15T10:57:56.592Z,17.44
2022-09-15T11:03:36.557Z,17.41
2022-09-15T11:09:06.055Z,16.96
2022-09-15T11:14:38.585Z,17.02
2022-09-15T11:19:40.259Z,17.01
2022-09-15T11:24:56.436Z,16.97
2022-09-15T11:30:16.325Z,17.17
2022-09-15T11:35:55.460Z,17.24
2022-09-15T11:41:05.458Z,17.07
2022-09-15T11:46:15.766Z,17.15
2022-09-15T11:51:25.170Z,17.62
2022-09-15T11:56:34.333Z,17.94
2022-09-15T12:01:49.065Z,18.01
2022-09-15T12:12:12.430Z,17.76
2022-09-15T12:17:41.894Z,17.69
2022-09-15T12:22:52.563Z,18.17
2022-09-15T12:28:22.309Z,18.75
2022-09-15T12:33:42.462Z,18.86
2022-09-15T12:38:48.641Z,18.34
2022-09-15T12:43:55.953Z,17.98
2022-09-15T12:49:03.504Z,18.28
2022-09-15T12:54:08.320Z,16.86
2022-09-15T12:59:15.058Z,16.48
2022-09-15T13:04:41.595Z,16.19
2022-09-15T13:09:59.535Z,16.05
2022-09-15T13:15:05.243Z,15.98
2022-09-15T13:20:15.367Z,16.02
2022-09-15T13:25:23.746Z,16.11
2022-09-15T13:30:38.224Z,16.22
2022-09-15T13:35:52.152Z,16.68
2022-09-15T13:41:32.869Z,16.78
2022-09-15T13:46:40.931Z,17.91
2022-09-15T13:51:51.482Z,18.40
2022-09-15T13:57:01.872Z,18.18
2022-09-15T14:02:09.001Z,17.40
2022-09-15T14:07:23.361Z,17.25
2022-09-15T14:12:24.909Z,17.24
2022-09-15T14:17:34.150Z,17.10
2022-09-15T14:22:35.766Z,17.19
2022-09-15T14:27:44.223Z,17.03
2022-09-15T14:32:49.170Z,16.89
2022-09-15T14:37:58.758Z,16.87
2022-09-15T14:43:00.404Z,16.80
2022-09-15T14:48:06.388Z,17.10
2022-09-15T14:53:13.635Z,17.17
2022-09-15T14:58:22.173Z,17.35
2022-09-15T15:03:29.861Z,17.29
2022-09-15T15:08:42.375Z,17.09
2022-09-15T15:13:48.735Z,17.23
2022-09-15T15:18:51.921Z,17.15
2022-09-15T15:23:53.928Z,17.20
2022-09-15T15:28:55.468Z,16.94
2022-09-15T15:34:05.520Z,16.77
2022-09-15T15:39:07.951Z,16.71
2022-09-15T15:44:15.672Z,16.47
2022-09-15T15:49:18.304Z,16.39
2022-09-15T15:54:19.907Z,16.52
2022-09-15T15:59:21.650Z,16.69
2022-09-15T16:04:23.119Z,16.61
2022-09-15T16:09:24.958Z,16.63
2022-09-15T16:21:36.683Z,16.48
2022-09-15T16:26:39.348Z,16.49
2022-09-15T16:31:42.910Z,16.84
2022-09-15T16:36:46.400Z,16.73
2022-09-15T16:41:47.919Z,16.17
2022-09-15T16:46:49.479Z,15.80
2022-09-15T16:51:51.047Z,15.68
2022-09-15T16:56:52.582Z,15.52
2022-09-15T17:01:54.165Z,15.51
2022-09-15T17:06:56.719Z,15.32
2022-09-15T17:12:23.937Z,15.18
2022-09-15T17:17:27.714Z,15.22
2022-09-15T17:22:29.213Z,15.19
2022-09-15T17:27:30.751Z,15.16
2022-09-15T17:32:34.924Z,15.11
2022-09-15T17:37:36.561Z,14.93
2022-09-15T17:42:38.196Z,14.32
2022-09-15T17:47:39.643Z,13.73
2022-09-15T17:52:41.643Z,13.45
2022-09-15T17:57:43.240Z,13.33
2022-09-15T18:02:53.772Z,13.15
2022-09-15T18:07:59.649Z,12.97
2022-09-15T18:13:03.546Z,12.90
2022-09-15T18:18:08.508Z,12.85
2022-09-15T18:23:17.458Z,12.75
2022-09-15T18:28:19.631Z,12.69
2022-09-15T18:33:26.051Z,12.71
2022-09-15T18:38:27.577Z,12.78
2022-09-15T18:43:29.051Z,12.72
2022-09-15T18:48:30.811Z,12.69
2022-09-15T18:53:34.907Z,12.69
2022-09-15T18:58:37.472Z,12.63
2022-09-15T19:03:43.997Z,12.60
2022-09-15T19:08:45.721Z,12.49
2022-09-15T19:13:47.277Z,12.34
2022-09-15T19:18:50.133Z,12.34
2022-09-15T19:23:51.718Z,12.23
2022-09-15T19:28:53.263Z,12.17
2022-09-15T19:33:54.749Z,12.08
2022-09-15T19:38:57.445Z,12.17
2022-09-15T19:44:01.082Z,12.32
2022-09-15T19:49:03.033Z,12.41
2022-09-15T19:54:06.187Z,12.26
2022-09-15T19:59:07.796Z,12.18
2022-09-15T20:09:29.386Z,12.17
2022-09-15T20:14:31.552Z,12.24
2022-09-15T20:19:33.362Z,12.24
2022-09-15T20:24:34.933Z,12.26
2022-09-15T20:29:36.638Z,12.24
2022-09-15T20:34:38.273Z,12.20
2022-09-15T20:39:40.620Z,12.09
2022-09-15T20:44:42.145Z,11.94
2022-09-15T20:49:43.619Z,11.87
2022-09-15T20:54:45.115Z,11.90
2022-09-15T20:59:46.599Z,11.82
2022-09-15T21:04:48.106Z,11.78
2022-09-15T21:09:49.832Z,11.79
2022-09-15T21:14:51.692Z,11.70
2022-09-15T21:19:53.179Z,11.59
2022-09-15T21:24:54.645Z,11.62
2022-09-15T21:30:00.468Z,11.77
2022-09-15T21:35:05.847Z,11.83
2022-09-15T21:40:07.716Z,11.95
2022-09-15T21:45:09.660Z,11.99
2022-09-15T21:50:11.385Z,11.96
2022-09-15T21:55:15.245Z,11.97
2022-09-15T22:00:21.739Z,11.99
2022-09-15T22:05:23.248Z,11.94
2022-09-15T22:10:27.745Z,12.00
2022-09-15T22:15:29.404Z,12.03
2022-09-15T22:20:33.140Z,12.10
2022-09-15T22:25:35.019Z,12.08
2022-09-15T22:30:36.577Z,12.10
2022-09-15T22:35:46.360Z,12.05
2022-09-15T22:40:47.870Z,11.89
2022-09-15T22:45:49.706Z,11.78
2022-09-15T22:50:51.384Z,11.66
2022-09-15T22:56:04.963Z,11.45
2022-09-15T23:01:09.808Z,11.40
2022-09-15T23:06:11.470Z,11.20
2022-09-15T23:11:13.990Z,11.08
2022-09-15T23:16:15.992Z,11.06
2022-09-15T23:21:17.777Z,10.96
2022-09-15T23:26:20.875Z,10.93
2022-09-15T23:31:29.958Z,10.85
2022-09-15T23:36:31.660Z,10.75
2022-09-15T23:41:33.228Z,10.76
2022-09-15T23:46:35.021Z,10.65
2022-09-15T23:51:37.159Z,10.55
2022-09-15T23:56:38.690Z,10.40
